EDNY

Friedrichshafen Airport

Friedrichshafen, Germany
METAR EDNY 181950Z VRB02KT 7000 OVC012 M00/M01 Q1027
Observed Flight Rules
Dec-18 @ 19:50 UTC (27 minutes ago) Marginal Visual Flight Rules
Wind Visibility Clouds
Variable at 2 knots 7,001 meters
  • Overcast at 1,200' AGL
Temperatures Readings
Current 0°C / 32°F
Dewpoint -1°C / 30°F
Humidity 93%
Altimeter 30.32" Hg
Pressure 1027 hPa
Elevation 424
METAR EDNY 181950Z VRB02KT 7000 OVC012 M00/M01 Q1027
Observed Flight Rules
Dec-18 @ 19:50 UTC
(27 minutes ago)
MVFR
Wind Visibility
Variable at 2 knots 7,001 meters
Clouds
  • Overcast at 1,200' AGL
Temperature Dewpoint
0°C / 32°F -1°C / 30°F
Humidity Altimeter Pressure
93% 30.32" Hg 1027 hPa